Time;durP1;ratioP1;P1;durP2;ratioP2;P2;SDS_P1;SDS_P2;PMS_P1;PMS_P2;Temp;Humidity;BMP_temperature;BMP_pressure;BME280_temperature;BME280_humidity;BME280_pressure;Samples;Min_cycle;Max_cycle;Signal;HPM_P1;HPM_P2
2021/04/21 00:00:29;;;;;;;40.10;18.30;;;;;;;3.86;100.00;96172.34;5057605;28;20208;-69
2021/04/21 00:02:57;;;;;;;42.47;18.70;;;;;;;3.91;100.00;96177.97;5057102;28;20821;-68
2021/04/21 00:05:25;;;;;;;42.00;19.27;;;;;;;3.85;100.00;96172.50;5057090;28;20204;-73
2021/04/21 00:07:52;;;;;;;43.00;18.60;;;;;;;3.94;100.00;96171.66;5057100;28;20231;-72
2021/04/21 00:10:22;;;;;;;37.33;17.67;;;;;;;3.95;100.00;96171.53;5056888;28;20208;-68
2021/04/21 00:12:48;;;;;;;34.87;17.07;;;;;;;4.02;100.00;96163.97;5057703;28;20201;-69
2021/04/21 00:15:19;;;;;;;36.37;17.57;;;;;;;3.83;100.00;96163.97;5053159;28;20193;-73
2021/04/21 00:17:48;;;;;;;40.93;17.27;;;;;;;3.82;100.00;96151.94;5057452;28;20232;-68
2021/04/21 00:20:15;;;;;;;41.30;18.07;;;;;;;3.91;100.00;96151.09;5057378;28;20201;-73
2021/04/21 00:22:43;;;;;;;41.23;18.77;;;;;;;3.67;100.00;96154.13;5057302;28;20196;-71
2021/04/21 00:25:13;;;;;;;40.40;18.00;;;;;;;3.43;100.00;96149.47;5056046;28;20682;-67
2021/04/21 00:27:40;;;;;;;34.60;16.63;;;;;;;3.47;100.00;96145.63;5058035;28;20220;-70
2021/04/21 00:30:09;;;;;;;36.87;17.27;;;;;;;3.62;100.00;96149.47;5056426;28;20667;-70
2021/04/21 00:32:39;;;;;;;39.73;19.00;;;;;;;3.65;100.00;96148.22;5056212;28;20291;-73
2021/04/21 00:35:08;;;;;;;38.33;17.60;;;;;;;3.71;100.00;96146.84;5056334;28;20205;-69
2021/04/21 00:37:34;;;;;;;36.10;17.40;;;;;;;3.73;100.00;96148.34;5057339;28;20226;-70
2021/04/21 00:40:01;;;;;;;38.37;17.30;;;;;;;3.75;100.00;96143.81;5056865;28;20201;-70
2021/04/21 00:42:36;;;;;;;32.30;16.37;;;;;;;3.77;100.00;96144.50;5056966;28;20193;-68
2021/04/21 00:45:07;;;;;;;35.13;16.87;;;;;;;3.83;100.00;96138.75;5055293;28;20195;-73
2021/04/21 00:47:42;;;;;;;33.20;15.63;;;;;;;3.79;99.22;96146.97;5056659;28;20228;-73
2021/04/21 00:50:13;;;;;;;33.17;15.37;;;;;;;3.72;98.46;96141.50;5056598;28;20207;-68
2021/04/21 00:52:47;;;;;;;31.77;16.07;;;;;;;3.58;99.11;96148.06;5056868;28;20196;-72
2021/04/21 00:55:21;;;;;;;33.47;15.93;;;;;;;3.57;100.00;96144.66;5055273;28;21021;-74
2021/04/21 00:57:57;;;;;;;34.77;15.60;;;;;;;3.52;100.00;96141.63;5057165;28;20553;-70
2021/04/21 01:00:26;;;;;;;36.50;16.90;;;;;;;3.37;100.00;96139.56;5056317;28;20200;-70
2021/04/21 01:02:54;;;;;;;35.40;15.50;;;;;;;3.14;100.00;96138.19;5056528;28;20213;-74
2021/04/21 01:05:25;;;;;;;33.20;15.80;;;;;;;3.23;99.66;96137.38;5055785;28;20269;-68
2021/04/21 01:07:55;;;;;;;37.63;16.83;;;;;;;3.12;100.00;96135.72;5056908;28;20265;-68
2021/04/21 01:10:27;;;;;;;40.97;17.47;;;;;;;3.16;100.00;96137.09;5056960;28;20638;-72
2021/04/21 01:12:54;;;;;;;40.47;18.20;;;;;;;3.17;100.00;96130.09;5056482;28;20203;-68
2021/04/21 01:15:21;;;;;;;39.93;17.97;;;;;;;3.06;100.00;96135.44;5053545;28;20204;-72
2021/04/21 01:17:51;;;;;;;37.07;17.63;;;;;;;3.01;100.00;96119.38;5056365;28;20223;-69
2021/04/21 01:20:26;;;;;;;36.63;16.90;;;;;;;3.16;100.00;96131.06;5056262;28;20667;-68
2021/04/21 01:23:20;;;;;;;38.30;15.63;;;;;;;3.24;100.00;96131.22;5056338;28;20215;-69
2021/04/21 01:26:01;;;;;;;36.10;15.90;;;;;;;2.72;100.00;96136.69;5055954;28;20196;-68
2021/04/21 01:28:30;;;;;;;38.87;16.90;;;;;;;2.73;100.00;96138.34;5056427;28;20242;-69
2021/04/21 01:30:58;;;;;;;37.47;16.87;;;;;;;2.88;100.00;96131.84;5056313;28;20823;-69
2021/04/21 01:33:27;;;;;;;38.53;17.97;;;;;;;2.91;100.00;96130.75;5056334;28;20650;-72
2021/04/21 01:35:56;;;;;;;38.33;17.37;;;;;;;2.98;100.00;96129.25;5055095;28;20219;-71
2021/04/21 01:38:24;;;;;;;40.40;17.37;;;;;;;3.01;100.00;96130.63;5055749;28;20228;-70
2021/04/21 01:40:53;;;;;;;38.97;17.77;;;;;;;2.95;100.00;96137.31;5056342;28;20204;-68
2021/04/21 01:43:22;;;;;;;39.83;17.90;;;;;;;3.04;100.00;96132.13;5056654;28;20205;-72
2021/04/21 01:45:53;;;;;;;37.07;17.67;;;;;;;3.06;100.00;96125.81;5055602;28;20197;-73
2021/04/21 01:48:23;;;;;;;35.20;15.17;;;;;;;3.09;100.00;96135.16;5055995;28;20225;-73
2021/04/21 01:50:51;;;;;;;32.63;15.17;;;;;;;3.07;100.00;96135.28;5056451;28;20985;-74
2021/04/21 01:53:27;;;;;;;36.30;16.07;;;;;;;3.10;100.00;96131.59;5055938;28;20216;-71
2021/04/21 01:56:00;;;;;;;41.40;17.63;;;;;;;2.97;100.00;96131.03;5057723;28;20230;-68
2021/04/21 01:58:33;;;;;;;40.93;18.13;;;;;;;2.88;100.00;96137.03;5060093;28;21020;-68
2021/04/21 02:01:05;;;;;;;38.53;17.40;;;;;;;2.92;100.00;96128.00;5059357;28;20205;-69
2021/04/21 02:03:34;;;;;;;38.50;17.50;;;;;;;2.98;100.00;96126.63;5060019;28;20200;-71
2021/04/21 02:06:23;;;;;;;36.73;16.33;;;;;;;2.99;100.00;96134.31;5058541;28;20197;-67
2021/04/21 02:08:57;;;;;;;35.57;16.20;;;;;;;2.83;100.00;96131.41;5059045;28;20201;-72
2021/04/21 02:11:26;;;;;;;36.73;16.97;;;;;;;2.74;100.00;96134.00;5059489;28;20235;-70
2021/04/21 02:14:12;;;;;;;39.20;16.73;;;;;;;2.87;100.00;96130.19;5056610;28;20204;-68
2021/04/21 02:16:46;;;;;;;37.83;16.30;;;;;;;2.87;100.00;96129.38;5059239;28;20253;-71
2021/04/21 02:19:26;;;;;;;38.17;17.43;;;;;;;2.87;100.00;96126.75;5059229;28;20577;-71
2021/04/21 02:21:59;;;;;;;36.87;17.00;;;;;;;2.83;100.00;96126.19;5059634;28;20254;-68
2021/04/21 02:24:35;;;;;;;38.27;17.53;;;;;;;2.84;100.00;96133.06;5058941;28;20657;-69
2021/04/21 02:27:09;;;;;;;40.67;17.33;;;;;;;2.91;100.00;96134.16;5058469;28;20248;-69
2021/04/21 02:29:41;;;;;;;33.10;14.47;;;;;;;2.57;100.00;96135.44;5059517;28;20208;-74
2021/04/21 02:32:15;;;;;;;31.10;14.23;;;;;;;2.57;100.00;96132.84;5059290;28;20220;-69
2021/04/21 02:34:54;;;;;;;37.30;16.40;;;;;;;2.60;100.00;96129.97;5059535;28;20204;-69
2021/04/21 02:37:27;;;;;;;37.03;16.97;;;;;;;2.66;100.00;96132.03;5058954;28;20220;-70
2021/04/21 02:40:02;;;;;;;34.40;15.53;;;;;;;2.62;100.00;96129.81;5058653;28;20682;-68
2021/04/21 02:42:34;;;;;;;39.10;16.63;;;;;;;2.68;100.00;96124.91;5059440;28;20192;-71
2021/04/21 02:45:08;;;;;;;40.60;17.40;;;;;;;2.71;100.00;96121.22;5058609;28;20662;-73
2021/04/21 02:47:39;;;;;;;35.13;15.87;;;;;;;2.59;100.00;96117.91;5058332;28;20262;-68
2021/04/21 02:50:15;;;;;;;34.80;16.20;;;;;;;2.59;100.00;96119.69;5058706;28;20212;-68
2021/04/21 02:53:06;;;;;;;38.97;17.40;;;;;;;2.54;100.00;96117.47;5058290;28;20220;-72
2021/04/21 02:55:42;;;;;;;34.17;16.07;;;;;;;2.49;100.00;96113.63;5057871;28;21133;-72
2021/04/21 02:58:15;;;;;;;36.07;16.63;;;;;;;2.54;100.00;96117.47;5058602;28;20281;-73
2021/04/21 03:00:47;;;;;;;34.27;16.10;;;;;;;2.56;100.00;96112.97;5059257;28;20597;-68
2021/04/21 03:03:21;;;;;;;40.63;17.43;;;;;;;2.50;100.00;96115.28;5058791;28;20254;-68
2021/04/21 03:05:52;;;;;;;40.57;17.57;;;;;;;2.45;100.00;96120.06;5058202;28;20203;-70
2021/04/21 03:08:27;;;;;;;42.47;17.23;;;;;;;2.40;100.00;96117.81;5058787;28;20216;-71
2021/04/21 03:11:02;;;;;;;34.47;14.90;;;;;;;2.41;100.00;96119.47;5058336;28;20226;-74
2021/04/21 03:13:31;;;;;;;32.67;15.47;;;;;;;2.32;100.00;96116.00;5055023;28;20203;-67
2021/04/21 03:16:01;;;;;;;33.43;14.83;;;;;;;2.40;100.00;96119.63;5057404;28;20205;-71
2021/04/21 03:18:30;;;;;;;37.73;16.67;;;;;;;2.42;100.00;96121.13;5057932;28;20222;-71
2021/04/21 03:21:01;;;;;;;33.97;16.27;;;;;;;2.34;100.00;96120.13;5058041;28;20745;-74
2021/04/21 03:23:29;;;;;;;42.60;18.23;;;;;;;2.24;100.00;96115.84;5058349;28;20234;-70
2021/04/21 03:25:58;;;;;;;37.60;16.90;;;;;;;2.31;100.00;96109.19;5057235;28;20309;-73
2021/04/21 03:28:27;;;;;;;36.77;15.93;;;;;;;2.38;100.00;96107.69;5058612;28;20224;-70
2021/04/21 03:30:57;;;;;;;35.50;16.27;;;;;;;2.37;100.00;96106.03;5058242;28;20238;-71
2021/04/21 03:33:29;;;;;;;37.53;16.03;;;;;;;2.31;100.00;96106.59;5057542;28;20227;-70
2021/04/21 03:35:59;;;;;;;36.70;16.00;;;;;;;2.32;100.00;96103.84;5056893;28;20201;-70
2021/04/21 03:38:27;;;;;;;35.20;15.77;;;;;;;2.02;100.00;96110.81;5058618;28;20220;-70
2021/04/21 03:40:53;;;;;;;37.23;15.93;;;;;;;1.98;100.00;96101.63;5057795;28;20204;-70
2021/04/21 03:43:20;;;;;;;35.93;15.83;;;;;;;2.12;100.00;96106.50;5057792;28;20216;-69
2021/04/21 03:45:49;;;;;;;34.10;15.93;;;;;;;2.10;100.00;96096.25;5057085;28;20199;-73
2021/04/21 03:48:16;;;;;;;37.07;15.90;;;;;;;2.13;100.00;96100.34;5058033;28;20223;-71
2021/04/21 03:50:44;;;;;;;36.90;16.40;;;;;;;2.17;100.00;96096.53;5057435;28;20207;-68
2021/04/21 03:53:13;;;;;;;31.03;15.57;;;;;;;2.18;100.00;96093.00;5057682;28;20204;-72
2021/04/21 03:55:40;;;;;;;41.57;18.33;;;;;;;2.18;100.00;96103.38;5056718;28;20203;-68
2021/04/21 03:58:09;;;;;;;39.43;17.20;;;;;;;2.18;100.00;96106.81;5057691;28;20593;-70
2021/04/21 04:00:36;;;;;;;34.13;16.63;;;;;;;2.19;100.00;96110.22;5057928;28;20215;-68
2021/04/21 04:03:04;;;;;;;33.60;15.53;;;;;;;2.02;100.00;96109.03;5057728;28;20207;-70
2021/04/21 04:05:38;;;;;;;36.43;15.50;;;;;;;2.01;100.00;96103.97;5056345;28;20267;-73
2021/04/21 04:08:08;;;;;;;41.07;16.53;;;;;;;2.01;100.00;96102.22;5057854;28;20234;-72
2021/04/21 04:10:39;;;;;;;40.80;16.80;;;;;;;1.77;100.00;96108.63;5058461;28;20215;-69
2021/04/21 04:13:10;;;;;;;39.37;17.63;;;;;;;1.79;100.00;96109.31;5054544;28;20204;-73
2021/04/21 04:15:38;;;;;;;41.07;18.03;;;;;;;1.80;100.00;96113.56;5055902;28;20214;-72
2021/04/21 04:18:05;;;;;;;34.70;16.63;;;;;;;1.74;100.00;96108.88;5057074;28;20597;-69
2021/04/21 04:20:33;;;;;;;33.03;15.27;;;;;;;1.71;100.00;96111.72;5057403;28;20619;-70
2021/04/21 04:23:06;;;;;;;34.00;15.50;;;;;;;1.74;100.00;96111.47;5056939;28;20257;-68
2021/04/21 04:25:36;;;;;;;37.23;16.17;;;;;;;1.75;100.00;96110.53;5057025;28;20246;-72
2021/04/21 04:28:04;;;;;;;41.20;17.60;;;;;;;1.86;100.00;96107.88;5056920;28;20713;-74
2021/04/21 04:30:31;;;;;;;40.07;17.07;;;;;;;1.98;100.00;96117.22;5057241;28;20212;-71
2021/04/21 04:32:59;;;;;;;38.23;16.50;;;;;;;2.03;100.00;96120.25;5056918;28;20200;-71
2021/04/21 04:35:26;;;;;;;38.67;17.80;;;;;;;2.02;100.00;96118.59;5056280;28;20681;-75
2021/04/21 04:37:57;;;;;;;42.67;18.00;;;;;;;2.02;100.00;96121.22;5056568;28;20227;-71
2021/04/21 04:40:23;;;;;;;43.13;18.53;;;;;;;2.14;100.00;96122.78;5057046;28;20698;-73
2021/04/21 04:42:50;;;;;;;40.13;17.33;;;;;;;2.20;100.00;96122.25;5057140;28;20207;-71
2021/04/21 04:45:19;;;;;;;38.77;17.70;;;;;;;1.96;100.00;96126.91;5056227;28;20606;-74
2021/04/21 04:47:47;;;;;;;48.90;18.03;;;;;;;1.93;100.00;96119.38;5056414;28;20223;-76
2021/04/21 04:50:15;;;;;;;40.70;18.90;;;;;;;2.03;100.00;96128.06;5057489;28;20253;-70
2021/04/21 04:52:43;;;;;;;45.17;19.10;;;;;;;2.19;100.00;96131.00;5056633;28;20677;-75
2021/04/21 04:55:12;;;;;;;41.27;18.47;;;;;;;2.36;100.00;96133.03;5055995;28;20203;-74
2021/04/21 04:57:40;;;;;;;37.00;16.23;;;;;;;2.31;100.00;96130.78;5056268;28;20219;-72
2021/04/21 05:00:08;;;;;;;36.17;15.07;;;;;;;2.12;100.00;96129.88;5057065;28;20269;-73
2021/04/21 05:02:40;;;;;;;35.30;16.63;;;;;;;2.13;100.00;96134.94;5056763;28;20251;-74
2021/04/21 05:05:08;;;;;;;48.70;24.08;;;;;;;2.29;100.00;96142.28;5055574;28;20886;-71
2021/04/21 05:07:42;;;;;;;47.23;20.27;;;;;;;2.37;100.00;96147.66;5056949;28;20228;-74
2021/04/21 05:10:16;;;;;;;43.17;20.20;;;;;;;2.48;100.00;96131.03;5056037;28;20204;-74
2021/04/21 05:12:44;;;;;;;44.30;19.03;;;;;;;2.56;100.00;96139.00;5057405;28;20236;-72
2021/04/21 05:15:52;;;;;;;41.23;17.40;;;;;;;2.45;100.00;96138.25;5053097;28;20206;-72
2021/04/21 05:18:44;;;;;;;41.53;18.80;;;;;;;2.58;100.00;96142.28;4996866;28;20310;-71
2021/04/21 05:21:38;;;;;;;45.93;18.47;;;;;;;2.69;100.00;96147.38;5057670;28;20204;-72
2021/04/21 05:24:46;;;;;;;44.90;20.13;;;;;;;2.82;100.00;96153.16;5055779;28;20734;-73
2021/04/21 05:27:40;;;;;;;43.90;18.03;;;;;;;2.79;100.00;96152.59;5055823;28;20219;-69
2021/04/21 05:30:22;;;;;;;43.83;18.77;;;;;;;2.92;100.00;96154.03;5057703;28;20200;-71
2021/04/21 05:33:39;;;;;;;44.63;18.53;;;;;;;3.08;100.00;96162.13;5060796;28;20227;-70
2021/04/21 05:36:55;;;;;;;50.23;19.13;;;;;;;3.09;100.00;96161.19;4957949;28;20231;-72
2021/04/21 05:40:06;;;;;;;48.93;20.33;;;;;;;3.27;100.00;96159.56;4958410;28;20208;-69
2021/04/21 05:43:23;;;;;;;45.47;18.70;;;;;;;3.50;100.00;96161.81;5060516;28;20203;-70
2021/04/21 05:46:22;;;;;;;56.80;21.23;;;;;;;3.67;100.00;96164.53;5059298;28;21052;-72
2021/04/21 05:49:15;;;;;;;57.63;23.00;;;;;;;3.80;100.00;96157.25;5060270;28;20207;-69
2021/04/21 05:52:03;;;;;;;51.27;21.13;;;;;;;3.90;100.00;96170.31;5060282;28;20224;-69
2021/04/21 05:55:10;;;;;;;57.83;24.30;;;;;;;3.99;100.00;96172.88;5059706;28;20197;-70
2021/04/21 05:58:18;;;;;;;58.43;23.50;;;;;;;4.16;100.00;96164.34;5060353;28;20266;-70
2021/04/21 06:01:06;;;;;;;94.43;30.67;;;;;;;4.34;100.00;96167.88;5059175;28;21153;-69
2021/04/21 06:03:33;;;;;;;82.30;28.33;;;;;;;4.39;100.00;96170.88;5060156;28;20205;-69
2021/04/21 06:06:03;;;;;;;128.60;34.93;;;;;;;4.51;100.00;96173.19;5059605;28;20274;-71
2021/04/21 06:08:31;;;;;;;88.87;30.83;;;;;;;4.66;100.00;96166.56;5059807;28;20239;-70
2021/04/21 06:10:58;;;;;;;68.80;26.87;;;;;;;4.70;100.00;96173.13;5059590;28;20212;-69
2021/04/21 06:13:28;;;;;;;65.30;27.70;;;;;;;4.80;100.00;96173.09;5056317;28;20353;-72
2021/04/21 06:15:55;;;;;;;68.10;28.23;;;;;;;4.82;100.00;96169.38;5058528;28;20564;-70
2021/04/21 06:18:22;;;;;;;66.07;27.50;;;;;;;4.89;100.00;96163.44;5059634;28;20216;-69
2021/04/21 06:20:49;;;;;;;68.03;27.13;;;;;;;5.05;100.00;96165.41;5059396;28;20632;-70
2021/04/21 06:23:17;;;;;;;65.33;28.27;;;;;;;5.03;100.00;96167.34;5059092;28;20573;-69
2021/04/21 06:25:48;;;;;;;66.83;28.13;;;;;;;5.16;100.00;96173.06;5058093;28;20245;-72
2021/04/21 06:28:16;;;;;;;67.10;28.07;;;;;;;5.30;100.00;96170.78;5059884;28;20220;-69
2021/04/21 06:30:45;;;;;;;68.53;28.23;;;;;;;5.31;100.00;96171.56;5059213;28;20334;-71
2021/04/21 06:33:11;;;;;;;57.27;26.07;;;;;;;5.44;100.00;96180.72;5059612;28;20659;-71
2021/04/21 06:35:38;;;;;;;58.83;25.93;;;;;;;5.57;100.00;96181.19;5059562;28;20205;-70
2021/04/21 06:38:07;;;;;;;60.77;25.67;;;;;;;5.64;100.00;96177.00;5059236;28;20220;-69
2021/04/21 06:40:34;;;;;;;56.37;24.57;;;;;;;5.80;100.00;96172.78;5058267;28;20204;-72
2021/04/21 06:43:01;;;;;;;52.73;25.47;;;;;;;5.90;100.00;96168.28;5059631;28;20203;-68
2021/04/21 06:45:29;;;;;;;54.57;24.80;;;;;;;5.88;100.00;96175.47;5058984;28;20207;-69
2021/04/21 06:47:56;;;;;;;54.70;25.17;;;;;;;5.99;100.00;96182.28;5058620;28;20217;-70
2021/04/21 06:50:28;;;;;;;61.67;26.60;;;;;;;6.08;100.00;96175.16;5058782;28;21022;-70
2021/04/21 06:52:59;;;;;;;54.10;25.33;;;;;;;6.21;100.00;96172.97;5058498;28;20773;-68
2021/04/21 06:55:26;;;;;;;57.13;25.47;;;;;;;6.33;100.00;96182.22;5057886;28;20201;-71
2021/04/21 06:57:52;;;;;;;52.60;25.73;;;;;;;6.30;100.00;96174.69;5058430;28;20224;-69
2021/04/21 07:00:22;;;;;;;52.93;25.77;;;;;;;6.45;100.00;96174.94;5059067;28;20234;-72
2021/04/21 07:02:51;;;;;;;60.60;26.57;;;;;;;6.62;100.00;96185.38;5058309;28;20224;-69
2021/04/21 07:05:31;;;;;;;54.97;26.40;;;;;;;6.75;100.00;96173.47;5058234;28;20211;-69
2021/04/21 07:08:05;;;;;;;60.30;27.63;;;;;;;6.88;100.00;96186.16;5058173;28;21141;-72
2021/04/21 07:10:32;;;;;;;59.27;26.93;;;;;;;6.93;100.00;96179.47;5058053;28;20958;-68
2021/04/21 07:12:59;;;;;;;58.53;26.60;;;;;;;7.05;100.00;96182.63;5058230;28;20228;-69
2021/04/21 07:15:26;;;;;;;63.20;28.00;;;;;;;7.24;100.00;96180.59;5058028;28;20200;-71
2021/04/21 07:17:53;;;;;;;68.00;29.77;;;;;;;7.42;100.00;96174.28;5055900;28;20252;-71
2021/04/21 07:20:20;;;;;;;66.83;29.90;;;;;;;7.61;100.00;96173.16;5058705;28;20235;-69
2021/04/21 07:22:48;;;;;;;67.17;29.10;;;;;;;7.71;100.00;96179.91;5057766;28;20266;-70
2021/04/21 07:25:15;;;;;;;65.10;28.63;;;;;;;7.78;100.00;96186.16;5057806;28;20204;-69
2021/04/21 07:27:44;;;;;;;63.43;29.47;;;;;;;7.92;100.00;96181.09;5057893;28;20721;-69
2021/04/21 07:30:11;;;;;;;62.07;28.60;;;;;;;8.05;100.00;96188.50;5058919;28;20202;-69
2021/04/21 07:32:45;;;;;;;65.60;29.10;;;;;;;8.17;99.81;96182.81;5057929;28;20221;-69
2021/04/21 07:35:18;;;;;;;68.33;29.33;;;;;;;8.33;99.07;96176.72;5057385;28;20579;-69
2021/04/21 07:37:44;;;;;;;66.20;29.20;;;;;;;8.48;98.24;96181.16;5056935;28;20225;-72
2021/04/21 07:40:25;;;;;;;63.80;29.03;;;;;;;8.64;98.59;96176.69;5057378;28;20204;-71
2021/04/21 07:42:52;;;;;;;67.30;29.47;;;;;;;8.77;97.05;96179.63;5056638;28;20249;-70
2021/04/21 07:45:21;;;;;;;65.07;29.43;;;;;;;8.88;95.70;96174.00;5057006;28;20203;-68
2021/04/21 07:47:48;;;;;;;61.10;28.73;;;;;;;8.91;95.17;96168.44;5058101;28;20220;-69
2021/04/21 07:50:14;;;;;;;60.80;29.43;;;;;;;9.03;93.94;96166.25;5056981;28;20295;-69
2021/04/21 07:52:40;;;;;;;63.20;27.90;;;;;;;9.30;94.53;96169.28;5055987;28;20220;-72
2021/04/21 07:55:09;;;;;;;59.57;27.43;;;;;;;9.52;94.03;96164.09;5056910;28;20197;-68
2021/04/21 07:57:36;;;;;;;61.13;29.37;;;;;;;9.69;91.23;96166.44;5056867;28;20223;-69
2021/04/21 08:00:04;;;;;;;61.17;28.37;;;;;;;9.82;88.92;96171.13;5056788;28;20513;-70
2021/04/21 08:02:33;;;;;;;54.63;27.17;;;;;;;9.89;87.94;96172.91;5057131;28;21044;-70
2021/04/21 08:05:05;;;;;;;59.30;27.60;;;;;;;9.98;89.34;96164.00;5056601;28;20322;-71
2021/04/21 08:07:34;;;;;;;58.80;28.17;;;;;;;10.19;89.34;96174.69;5056363;28;20350;-72
2021/04/21 08:10:03;;;;;;;53.40;26.00;;;;;;;10.28;86.97;96172.81;5056820;28;20210;-69
2021/04/21 08:12:30;;;;;;;56.70;25.83;;;;;;;10.44;86.18;96171.69;5056717;28;20285;-74
2021/04/21 08:15:01;;;;;;;53.30;25.07;;;;;;;10.61;84.58;96167.09;5056660;28;20204;-69
2021/04/21 08:17:28;;;;;;;53.20;26.00;;;;;;;10.85;85.88;96167.69;5056607;28;20221;-73
2021/04/21 08:19:55;;;;;;;50.97;22.33;;;;;;;10.90;82.04;96170.59;5056359;28;20487;-69
2021/04/21 08:22:28;;;;;;;56.33;25.67;;;;;;;11.16;83.57;96177.06;5056236;28;20334;-73
2021/04/21 08:24:56;;;;;;;49.57;24.27;;;;;;;11.20;84.26;96175.72;5056481;28;20231;-70
2021/04/21 08:27:23;;;;;;;58.20;24.83;;;;;;;11.15;83.94;96169.31;5055449;28;20447;-72
2021/04/21 08:29:50;;;;;;;50.40;24.40;;;;;;;11.28;84.31;96170.34;5056440;28;20192;-69
2021/04/21 08:32:19;;;;;;;49.43;24.03;;;;;;;11.50;84.12;96174.72;5056502;28;20225;-72
2021/04/21 08:34:46;;;;;;;51.30;24.52;;;;;;;11.93;81.35;96176.47;5056443;28;20204;-70
2021/04/21 08:37:12;;;;;;;49.60;23.20;;;;;;;12.05;79.33;96170.47;5055839;28;20293;-71
2021/04/21 08:39:39;;;;;;;41.90;22.30;;;;;;;12.22;77.07;96177.97;5056195;28;20628;-69
2021/04/21 08:42:07;;;;;;;44.65;22.92;;;;;;;12.29;77.21;96170.13;5056058;28;20682;-70
2021/04/21 08:44:40;;;;;;;48.70;22.20;;;;;;;12.25;76.71;96171.50;5055815;28;20304;-73
2021/04/21 08:47:07;;;;;;;46.92;22.25;;;;;;;12.22;76.63;96172.69;5055611;28;20257;-73
2021/04/21 08:49:33;;;;;;;47.53;23.87;;;;;;;12.40;79.42;96169.63;5053334;28;20207;-72
2021/04/21 08:52:01;;;;;;;45.05;23.13;;;;;;;12.63;76.89;96173.69;5056757;28;20235;-70
2021/04/21 08:54:29;;;;;;;39.45;20.63;;;;;;;12.78;73.67;96167.28;5055693;28;20204;-69
2021/04/21 08:56:58;;;;;;;42.97;21.70;;;;;;;12.86;75.72;96169.03;5056240;28;20227;-71
2021/04/21 08:59:24;;;;;;;40.22;21.75;;;;;;;12.79;75.44;96171.59;5055398;28;20250;-72
2021/04/21 09:01:50;;;;;;;39.60;22.35;;;;;;;13.00;76.71;96173.41;5056313;28;20208;-69
2021/04/21 09:04:17;;;;;;;38.53;20.92;;;;;;;13.07;74.91;96163.66;5056161;28;20201;-71
2021/04/21 09:06:45;;;;;;;39.10;19.98;;;;;;;13.21;71.77;96168.03;5055810;28;20232;-73
2021/04/21 09:09:12;;;;;;;37.65;19.23;;;;;;;12.88;70.40;96174.91;5051216;28;20200;-70
2021/04/21 09:11:38;;;;;;;37.83;20.42;;;;;;;13.04;72.65;96169.34;5056772;28;20278;-70
2021/04/21 09:14:05;;;;;;;38.85;21.05;;;;;;;13.07;71.38;96164.50;5056777;28;20250;-74
2021/04/21 09:16:31;;;;;;;39.45;20.83;;;;;;;13.29;72.29;96163.41;5055555;28;20947;-72
2021/04/21 09:18:58;;;;;;;39.22;21.23;;;;;;;13.42;69.24;96163.47;5057005;28;20200;-70
2021/04/21 09:21:29;;;;;;;42.75;21.60;;;;;;;13.57;68.95;96156.22;5056420;28;20208;-73
2021/04/21 09:23:55;;;;;;;38.60;20.95;;;;;;;13.72;68.34;96164.81;5056449;28;20204;-72
2021/04/21 09:26:23;;;;;;;39.67;19.13;;;;;;;13.64;68.77;96165.81;5055187;28;20224;-72
2021/04/21 09:28:53;;;;;;;42.80;21.42;;;;;;;13.82;70.33;96158.13;5056660;28;20201;-69
2021/04/21 09:31:21;;;;;;;37.42;19.98;;;;;;;14.01;66.34;96160.88;5055741;28;20200;-74
2021/04/21 09:33:48;;;;;;;35.60;19.10;;;;;;;14.01;64.18;96160.88;5056557;28;20209;-73
2021/04/21 09:36:32;;;;;;;34.42;19.33;;;;;;;14.20;65.30;96160.09;5055680;28;21042;-73
2021/04/21 09:39:16;;;;;;;37.58;18.92;;;;;;;14.32;63.25;96157.69;5055811;28;20200;-71
2021/04/21 09:41:43;;;;;;;33.50;18.23;;;;;;;14.39;61.27;96158.53;5056749;28;20258;-72
2021/04/21 09:44:14;;;;;;;33.03;18.77;;;;;;;14.42;63.65;96147.50;5056273;28;20628;-69
2021/04/21 09:46:43;;;;;;;36.03;19.08;;;;;;;14.30;62.13;96147.28;5055798;28;20231;-70
2021/04/21 09:49:38;;;;;;;34.30;18.52;;;;;;;14.50;61.70;96148.13;5056181;28;20806;-69
2021/04/21 09:52:29;;;;;;;29.98;16.63;;;;;;;14.61;61.35;96146.72;4998807;28;20220;-70
2021/04/21 09:54:56;;;;;;;30.17;17.08;;;;;;;14.88;62.52;96142.00;5056302;28;20205;-71
2021/04/21 09:57:27;;;;;;;29.65;16.08;;;;;;;15.19;61.95;96142.16;5055079;28;20222;-70
2021/04/21 09:59:58;;;;;;;31.42;16.35;;;;;;;15.18;59.07;96140.53;5055223;28;20205;-71
2021/04/21 10:02:36;;;;;;;19.35;10.80;;;;;;;15.57;61.74;96137.81;5056148;28;20200;-70
2021/04/21 10:05:21;;;;;;;20.27;10.38;;;;;;;15.92;60.42;96143.38;5055360;28;20200;-71
2021/04/21 10:07:47;;;;;;;15.30;9.60;;;;;;;16.23;59.16;96142.59;5056451;28;20220;-70
2021/04/21 10:10:26;;;;;;;25.63;14.82;;;;;;;16.26;54.80;96139.56;5052221;28;20582;-70
2021/04/21 10:12:52;;;;;;;19.65;11.25;;;;;;;16.55;53.98;96142.44;5056159;28;20216;-72
2021/04/21 10:15:18;;;;;;;25.20;13.68;;;;;;;16.06;55.29;96131.66;5055265;28;20224;-69
2021/04/21 10:17:46;;;;;;;25.48;14.57;;;;;;;16.20;55.61;96133.19;5059738;28;20229;-71
2021/04/21 10:20:13;;;;;;;24.20;15.23;;;;;;;16.58;53.88;96132.13;5059593;28;20208;-69
2021/04/21 10:22:41;;;;;;;20.67;12.70;;;;;;;16.17;53.30;96132.81;5059369;28;20201;-72
2021/04/21 10:25:09;;;;;;;20.38;12.20;;;;;;;16.15;52.32;96132.22;5058566;28;20250;-69
2021/04/21 10:27:35;;;;;;;22.40;12.57;;;;;;;16.37;51.84;96134.38;5058887;28;20739;-69
2021/04/21 10:30:03;;;;;;;22.00;12.93;;;;;;;16.23;51.96;96130.13;5059228;28;20204;-70
2021/04/21 10:32:30;;;;;;;23.63;12.88;;;;;;;16.39;49.86;96129.63;5059326;28;20224;-72
2021/04/21 10:34:58;;;;;;;17.13;10.70;;;;;;;16.71;53.22;96117.94;5059477;28;20197;-69
2021/04/21 10:37:24;;;;;;;15.60;9.52;;;;;;;17.17;49.78;96117.31;5058326;28;20250;-71
2021/04/21 10:39:53;;;;;;;19.90;12.73;;;;;;;17.26;50.39;96115.19;5059210;28;20438;-69
2021/04/21 10:42:20;;;;;;;23.48;13.35;;;;;;;17.17;48.00;96109.31;5058939;28;20670;-72
2021/04/21 10:44:47;;;;;;;20.73;11.52;;;;;;;17.46;49.68;96116.59;5059152;28;20313;-72
2021/04/21 10:47:14;;;;;;;20.35;12.10;;;;;;;17.68;49.53;96109.81;5057965;28;21213;-74
2021/04/21 10:49:43;;;;;;;19.67;12.50;;;;;;;17.28;46.20;96108.59;5059216;28;20208;-72
2021/04/21 10:52:15;;;;;;;20.92;11.70;;;;;;;17.67;45.32;96110.00;5058731;28;20344;-72
2021/04/21 10:54:42;;;;;;;18.17;11.38;;;;;;;17.70;44.68;96113.03;5059983;28;20219;-70
2021/04/21 10:57:27;;;;;;;19.40;11.75;;;;;;;17.28;43.63;96107.78;5057949;28;20224;-72
2021/04/21 11:00:12;;;;;;;20.20;11.73;;;;;;;17.30;43.07;96103.88;5058658;28;20254;-69
2021/04/21 11:02:51;;;;;;;18.98;11.48;;;;;;;17.25;45.03;96092.28;5059529;28;21121;-73
2021/04/21 11:05:19;;;;;;;18.73;11.43;;;;;;;17.33;43.83;96099.97;5058476;28;20580;-73
2021/04/21 11:07:47;;;;;;;20.50;12.07;;;;;;;17.77;44.80;96092.47;5058322;28;20228;-70
2021/04/21 11:10:34;;;;;;;18.35;11.25;;;;;;;17.76;44.55;96101.50;5055543;28;20208;-70
2021/04/21 11:13:00;;;;;;;22.00;12.90;;;;;;;17.95;43.85;96097.78;5058083;28;20279;-70
2021/04/21 11:15:42;;;;;;;27.05;13.45;;;;;;;17.92;43.74;96101.69;5058124;28;20207;-73
2021/04/21 11:18:32;;;;;;;22.85;13.80;;;;;;;17.98;45.13;96100.78;5057949;28;20262;-70
2021/04/21 11:21:08;;;;;;;26.48;14.35;;;;;;;18.13;45.40;96098.53;5058504;28;20203;-70
2021/04/21 11:23:56;;;;;;;27.05;14.68;;;;;;;18.08;47.26;96097.59;5058293;28;20200;-72
2021/04/21 11:26:34;;;;;;;22.17;12.70;;;;;;;17.36;46.23;96092.34;5057859;28;20228;-70
2021/04/21 11:29:02;;;;;;;30.30;15.88;;;;;;;17.87;42.82;96088.22;5057239;28;20215;-70
2021/04/21 11:32:10;;;;;;;19.48;11.30;;;;;;;17.54;42.93;96089.69;5058267;28;20615;-71
2021/04/21 11:34:38;;;;;;;19.00;11.68;;;;;;;17.39;43.15;96094.56;5045762;28;20204;-73
2021/04/21 11:37:06;;;;;;;19.20;11.82;;;;;;;17.90;46.32;96086.97;5056987;28;20225;-74
2021/04/21 11:40:06;;;;;;;18.58;11.25;;;;;;;18.35;48.07;96092.50;5058017;28;20257;-71